createdAt,value
2023-04-15T00:00:17.135Z,94359.34
2023-04-15T00:01:22.623Z,94355.03
2023-04-15T00:02:24.651Z,94360.06
2023-04-15T00:03:26.948Z,94359.81
2023-04-15T00:04:29.127Z,94353.78
2023-04-15T00:05:31.627Z,94356.13
2023-04-15T00:06:33.371Z,94356.38
2023-04-15T00:07:34.932Z,94357.53
2023-04-15T00:08:36.668Z,94361.38
2023-04-15T00:09:38.280Z,94363.31
2023-04-15T00:10:44.238Z,94361.38
2023-04-15T00:11:46.398Z,94364.00
2023-04-15T00:12:48.066Z,94352.47
2023-04-15T00:13:52.771Z,94358.03
2023-04-15T00:14:54.591Z,94360.41
2023-04-15T00:15:56.318Z,94361.50
2023-04-15T00:16:58.074Z,94356.94
2023-04-15T00:18:00.083Z,94358.66
2023-04-15T00:19:04.951Z,94355.28
2023-04-15T00:20:07.095Z,94358.47
2023-04-15T00:21:09.601Z,94354.03
2023-04-15T00:22:12.272Z,94353.47
2023-04-15T00:23:13.998Z,94355.84
2023-04-15T00:24:15.600Z,94355.66
2023-04-15T00:25:18.053Z,94359.44
2023-04-15T00:26:20.770Z,94358.19
2023-04-15T00:27:24.303Z,94351.88
2023-04-15T00:28:26.282Z,94361.16
2023-04-15T00:29:30.451Z,94350.22
2023-04-15T00:30:32.323Z,94350.53
2023-04-15T00:31:34.061Z,94350.53
2023-04-15T00:32:38.064Z,94351.56
2023-04-15T00:33:40.159Z,94352.91
2023-04-15T00:34:44.541Z,94351.34
2023-04-15T00:35:46.914Z,94346.25
2023-04-15T00:36:52.499Z,94356.31
2023-04-15T00:37:56.722Z,94350.41
2023-04-15T00:38:58.823Z,94348.31
2023-04-15T00:40:01.317Z,94348.31
2023-04-15T00:41:03.812Z,94351.44
2023-04-15T00:42:08.056Z,94354.06
2023-04-15T00:43:09.940Z,94345.41
2023-04-15T00:44:11.668Z,94347.53
2023-04-15T00:45:13.342Z,94339.22
2023-04-15T00:46:17.711Z,94348.25
2023-04-15T00:47:22.557Z,94347.22
2023-04-15T00:48:24.824Z,94339.88
2023-04-15T00:49:27.219Z,94340.44
2023-04-15T00:50:29.016Z,94336.78
2023-04-15T00:51:33.563Z,94341.00
2023-04-15T00:52:35.279Z,94336.84
2023-04-15T00:53:37.013Z,94332.50
2023-04-15T00:54:44.651Z,94343.13
2023-04-15T00:55:46.421Z,94337.88
2023-04-15T00:56:50.345Z,94337.94
2023-04-15T00:57:52.671Z,94337.44
2023-04-15T00:58:54.487Z,94340.63
2023-04-15T00:59:56.877Z,94333.88
2023-04-15T01:00:59.066Z,94341.75
2023-04-15T01:02:03.474Z,94341.19
2023-04-15T01:03:07.837Z,94334.81
2023-04-15T01:04:12.358Z,94331.72
2023-04-15T01:05:17.599Z,94337.72
2023-04-15T01:06:19.270Z,94336.41
2023-04-15T01:07:20.944Z,94342.69
2023-04-15T01:08:22.494Z,94341.81
2023-04-15T01:09:24.398Z,94344.84
2023-04-15T01:10:26.156Z,94341.19
2023-04-15T01:11:28.068Z,94334.16
2023-04-15T01:12:34.365Z,94339.53
2023-04-15T01:13:36.788Z,94345.66
2023-04-15T01:14:38.698Z,94339.59
2023-04-15T01:15:44.658Z,94338.00
2023-04-15T01:16:47.003Z,94341.97
2023-04-15T01:17:49.027Z,94343.81
2023-04-15T01:18:50.861Z,94335.13
2023-04-15T01:19:57.892Z,94339.91
2023-04-15T01:21:01.883Z,94335.19
2023-04-15T01:22:04.158Z,94339.69
2023-04-15T01:23:06.285Z,94342.84
2023-04-15T01:24:10.426Z,94344.66
2023-04-15T01:25:17.682Z,94343.09
2023-04-15T01:26:19.880Z,94341.50
2023-04-15T01:27:22.426Z,94342.84
2023-04-15T01:28:27.212Z,94333.38
2023-04-15T01:29:29.526Z,94341.25
2023-04-15T01:30:34.760Z,94337.81
2023-04-15T01:31:39.177Z,94338.09
2023-04-15T01:32:41.057Z,94333.38
2023-04-15T01:33:43.350Z,94335.53
2023-04-15T01:34:45.100Z,94337.09
2023-04-15T01:35:48.804Z,94333.50
2023-04-15T01:36:51.263Z,94332.34
2023-04-15T01:37:55.695Z,94334.47
2023-04-15T01:38:58.507Z,94335.03
2023-04-15T01:40:03.387Z,94337.09
2023-04-15T01:41:07.624Z,94331.84
2023-04-15T01:42:09.859Z,94331.84
2023-04-15T01:43:11.519Z,94334.41
2023-04-15T01:44:13.152Z,94335.03
2023-04-15T01:45:14.908Z,94330.59
2023-04-15T01:46:16.517Z,94334.34
2023-04-15T01:47:20.785Z,94332.81
2023-04-15T01:48:23.326Z,94326.75
2023-04-15T01:49:25.017Z,94333.84
2023-04-15T01:50:29.014Z,94333.53
2023-04-15T01:51:30.590Z,94332.31
2023-04-15T01:52:32.334Z,94330.63
2023-04-15T01:53:34.391Z,94339.91
2023-04-15T01:54:37.161Z,94338.00
2023-04-15T01:55:39.177Z,94336.72
2023-04-15T01:56:42.254Z,94326.16
2023-04-15T01:57:44.675Z,94325.38
2023-04-15T01:58:46.464Z,94328.25
2023-04-15T01:59:48.446Z,94333.41
2023-04-15T02:00:50.144Z,94332.91
2023-04-15T02:01:52.386Z,94332.75
2023-04-15T02:02:55.515Z,94340.94
2023-04-15T02:03:59.869Z,94336.22
2023-04-15T02:05:01.819Z,94341.84
2023-04-15T02:06:06.250Z,94339.88
2023-04-15T02:07:08.530Z,94341.81
2023-04-15T02:08:10.520Z,94338.13
2023-04-15T02:09:13.526Z,94340.50
2023-04-15T02:10:16.656Z,94340.81
2023-04-15T02:11:18.412Z,94337.94
2023-04-15T02:12:21.185Z,94336.91
2023-04-15T02:13:25.819Z,94338.50
2023-04-15T02:14:27.491Z,94334.16
2023-04-15T02:15:31.976Z,94336.91
2023-04-15T02:16:34.021Z,94332.69
2023-04-15T02:17:39.253Z,94332.19
2023-04-15T02:18:43.082Z,94335.91
2023-04-15T02:19:44.891Z,94334.09
2023-04-15T02:20:47.175Z,94338.88
2023-04-15T02:21:48.848Z,94337.44
2023-04-15T02:22:52.786Z,94334.28
2023-04-15T02:23:54.457Z,94339.13
2023-04-15T02:24:58.535Z,94335.25
2023-04-15T02:26:00.374Z,94343.19
2023-04-15T02:27:02.158Z,94338.84
2023-04-15T02:28:03.999Z,94332.41
2023-04-15T02:29:05.852Z,94331.91
2023-04-15T02:30:09.317Z,94331.16
2023-04-15T02:31:10.978Z,94343.75
2023-04-15T02:32:17.742Z,94335.84
2023-04-15T02:33:19.384Z,94331.66
2023-04-15T02:34:23.096Z,94336.91
2023-04-15T02:35:25.898Z,94338.63
2023-04-15T02:36:29.812Z,94339.53
2023-04-15T02:37:40.481Z,94344.28
2023-04-15T02:38:43.932Z,94341.91
2023-04-15T02:39:47.455Z,94345.88
2023-04-15T02:40:51.026Z,94351.44
2023-04-15T02:41:52.796Z,94349.31
2023-04-15T02:42:54.377Z,94343.56
2023-04-15T02:43:57.096Z,94341.13
2023-04-15T02:44:59.355Z,94337.44
2023-04-15T02:46:06.233Z,94343.81
2023-04-15T02:47:07.965Z,94339.28
2023-04-15T02:48:09.854Z,94348.81
2023-04-15T02:49:11.620Z,94350.28
2023-04-15T02:50:13.445Z,94345.16
2023-04-15T02:51:20.072Z,94347.41
2023-04-15T02:52:21.929Z,94357.13
2023-04-15T02:53:23.598Z,94351.94
2023-04-15T02:54:26.200Z,94344.84
2023-04-15T02:55:28.150Z,94344.63
2023-04-15T02:56:30.900Z,94351.13
2023-04-15T02:57:32.606Z,94345.81
2023-04-15T02:58:40.709Z,94346.84
2023-04-15T02:59:42.461Z,94347.41
2023-04-15T03:00:44.033Z,94349.06
2023-04-15T03:01:46.039Z,94350.47
2023-04-15T03:04:17.546Z,94353.63
2023-04-15T03:05:19.236Z,94347.06
2023-04-15T03:06:24.766Z,94355.09
2023-04-15T03:07:26.614Z,94352.66
2023-04-15T03:08:31.488Z,94351.31
2023-04-15T03:09:33.267Z,94352.34
2023-04-15T03:10:37.120Z,94351.78
2023-04-15T03:11:40.776Z,94351.22
2023-04-15T03:12:44.034Z,94348.34
2023-04-15T03:13:50.607Z,94348.06
2023-04-15T03:15:02.358Z,94352.75
2023-04-15T03:16:10.567Z,94349.88
2023-04-15T03:17:12.412Z,94343.34
2023-04-15T03:18:14.143Z,94350.22
2023-04-15T03:19:16.676Z,94351.41
2023-04-15T03:20:19.719Z,94346.47
2023-04-15T03:21:23.912Z,94348.22
2023-04-15T03:22:26.543Z,94350.00
2023-04-15T03:23:34.711Z,94352.06
2023-04-15T03:24:37.240Z,94348.06
2023-04-15T03:25:38.945Z,94347.09
2023-04-15T03:26:44.471Z,94344.00
2023-04-15T03:27:52.276Z,94346.94
2023-04-15T03:28:56.787Z,94342.50
2023-04-15T03:29:58.702Z,94345.59
2023-04-15T03:31:06.502Z,94348.22
2023-04-15T03:32:08.223Z,94340.34
2023-04-15T03:33:09.821Z,94348.53
2023-04-15T03:34:12.561Z,94342.31
2023-04-15T03:35:16.683Z,94339.81
2023-04-15T03:36:18.332Z,94339.06
2023-04-15T03:37:19.996Z,94333.97
2023-04-15T03:38:23.873Z,94339.06
2023-04-15T03:39:25.730Z,94340.25
2023-04-15T03:40:27.282Z,94339.00
2023-04-15T03:41:28.975Z,94341.22
2023-04-15T03:42:30.627Z,94336.63
2023-04-15T03:43:34.515Z,94339.16
2023-04-15T03:44:36.212Z,94341.22
2023-04-15T03:45:38.149Z,94339.63
2023-04-15T03:46:42.533Z,94343.13
2023-04-15T03:47:46.646Z,94334.38
2023-04-15T03:48:48.808Z,94334.16
2023-04-15T03:49:50.561Z,94327.53
2023-04-15T03:50:54.392Z,94337.56
2023-04-15T03:51:56.432Z,94337.00
2023-04-15T03:52:58.040Z,94341.69
2023-04-15T03:53:59.711Z,94334.84
2023-04-15T03:55:01.652Z,94332.47
2023-04-15T03:56:03.426Z,94332.63
2023-04-15T03:57:05.095Z,94331.22
2023-04-15T03:58:07.027Z,94336.84
2023-04-15T03:59:08.956Z,94329.84
2023-04-15T04:00:10.860Z,94327.88
2023-04-15T04:01:16.610Z,94328.44
2023-04-15T04:02:18.401Z,94328.44
2023-04-15T04:03:22.690Z,94336.84
2023-04-15T04:04:24.706Z,94332.41
2023-04-15T04:05:26.508Z,94341.06
2023-04-15T04:06:28.121Z,94327.56
2023-04-15T04:07:30.303Z,94329.53
2023-04-15T04:08:31.959Z,94339.00
2023-04-15T04:09:33.499Z,94339.31
2023-04-15T04:10:35.295Z,94336.28
2023-04-15T04:11:37.615Z,94340.34
2023-04-15T04:12:39.329Z,94331.53
2023-04-15T04:13:41.546Z,94335.19
2023-04-15T04:14:43.286Z,94334.72
2023-04-15T04:15:44.873Z,94335.59
2023-04-15T04:16:46.754Z,94333.94
2023-04-15T04:17:48.603Z,94339.78
2023-04-15T04:18:52.544Z,94340.22
2023-04-15T04:19:54.195Z,94336.78
2023-04-15T04:20:57.953Z,94340.75
2023-04-15T04:21:59.689Z,94330.34
2023-04-15T04:23:01.328Z,94335.19
2023-04-15T04:24:02.999Z,94334.00
2023-04-15T04:25:05.791Z,94333.13
2023-04-15T04:26:07.427Z,94333.19
2023-04-15T04:27:09.044Z,94341.06
2023-04-15T04:28:11.621Z,94341.94
2023-04-15T04:29:13.254Z,94340.28
2023-04-15T04:32:28.510Z,94341.06
2023-04-15T04:33:30.076Z,94349.25
2023-04-15T04:34:32.538Z,94342.34
2023-04-15T04:35:35.115Z,94339.25
2023-04-15T04:36:39.183Z,94333.75
2023-04-15T04:37:42.982Z,94342.72
2023-04-15T04:38:44.694Z,94340.91
2023-04-15T04:39:46.670Z,94343.28
2023-04-15T04:40:50.788Z,94347.50
2023-04-15T04:41:52.669Z,94344.41
2023-04-15T04:42:54.305Z,94344.97
2023-04-15T04:43:56.341Z,94341.69
2023-04-15T04:44:58.136Z,94339.16
2023-04-15T04:46:00.149Z,94341.84
2023-04-15T04:47:01.923Z,94340.03
2023-04-15T04:48:07.137Z,94344.25
2023-04-15T04:49:08.952Z,94341.53
2023-04-15T04:50:10.867Z,94344.25
2023-04-15T04:51:15.008Z,94343.91
2023-04-15T04:52:16.706Z,94352.66
2023-04-15T04:53:18.274Z,94346.47
2023-04-15T04:54:19.946Z,94346.38
2023-04-15T04:55:21.548Z,94347.75
2023-04-15T04:56:23.207Z,94346.75
2023-04-15T04:57:27.279Z,94350.84
2023-04-15T04:58:28.892Z,94343.28
2023-04-15T04:59:30.770Z,94338.28
2023-04-15T05:00:32.536Z,94344.66
2023-04-15T05:01:36.564Z,94350.44
2023-04-15T05:02:42.509Z,94346.63
2023-04-15T05:03:44.451Z,94343.75
2023-04-15T05:04:46.384Z,94344.56
2023-04-15T05:05:49.344Z,94345.34
2023-04-15T05:06:51.023Z,94347.75
2023-04-15T05:07:56.432Z,94350.69
2023-04-15T05:08:58.131Z,94345.44
2023-04-15T05:09:59.739Z,94345.50
2023-04-15T05:11:01.485Z,94350.16
2023-04-15T05:12:04.439Z,94345.59
2023-04-15T05:13:06.089Z,94349.50
2023-04-15T05:14:12.602Z,94349.50
2023-04-15T05:15:14.337Z,94344.25
2023-04-15T05:16:16.026Z,94350.84
2023-04-15T05:17:22.542Z,94350.75
2023-04-15T05:18:24.454Z,94356.09
2023-04-15T05:19:26.153Z,94352.78
2023-04-15T05:20:29.943Z,94348.88
2023-04-15T05:21:32.095Z,94358.09
2023-04-15T05:22:33.828Z,94346.81
2023-04-15T05:23:35.530Z,94349.72
2023-04-15T05:24:37.205Z,94346.00
2023-04-15T05:25:38.852Z,94350.31
2023-04-15T05:26:43.080Z,94349.72
2023-04-15T05:27:47.155Z,94349.81
2023-04-15T05:28:51.016Z,94337.50
2023-04-15T05:29:55.103Z,94347.50
2023-04-15T05:30:56.977Z,94340.03
2023-04-15T05:32:01.298Z,94347.25
2023-04-15T05:33:06.789Z,94342.31
2023-04-15T05:34:08.720Z,94349.72
2023-04-15T05:35:10.661Z,94352.00
2023-04-15T05:36:12.688Z,94347.63
2023-04-15T05:37:14.444Z,94350.75
2023-04-15T05:38:16.160Z,94351.72
2023-04-15T05:39:17.858Z,94361.13
2023-04-15T05:40:20.099Z,94344.88
2023-04-15T05:41:21.852Z,94350.19
2023-04-15T05:42:23.516Z,94351.59
2023-04-15T05:43:25.518Z,94349.09
2023-04-15T05:44:27.340Z,94351.22
2023-04-15T05:45:29.010Z,94342.38
2023-04-15T05:46:30.998Z,94350.63
2023-04-15T05:47:32.798Z,94345.00
2023-04-15T05:48:34.566Z,94344.78
2023-04-15T05:49:36.486Z,94351.66
2023-04-15T05:50:43.084Z,94346.28
2023-04-15T05:51:47.241Z,94343.50
2023-04-15T05:52:49.007Z,94346.66
2023-04-15T05:53:51.239Z,94353.28
2023-04-15T05:54:52.965Z,94348.81
2023-04-15T05:55:54.530Z,94343.41
2023-04-15T05:56:57.587Z,94347.78
2023-04-15T05:58:01.913Z,94343.63
2023-04-15T05:59:03.916Z,94343.38
2023-04-15T06:00:06.419Z,94339.41
2023-04-15T06:01:13.825Z,94339.88
2023-04-15T06:02:15.603Z,94342.53
2023-04-15T06:03:19.749Z,94344.78
2023-04-15T06:04:24.168Z,94342.44
2023-04-15T06:05:26.035Z,94335.88
2023-04-15T06:06:27.593Z,94341.44
2023-04-15T06:07:29.331Z,94342.31
2023-04-15T06:08:31.231Z,94334.19
2023-04-15T06:09:33.150Z,94335.00
2023-04-15T06:10:36.718Z,94335.00
2023-04-15T06:11:38.605Z,94331.81
2023-04-15T06:12:40.172Z,94336.94
2023-04-15T06:13:41.806Z,94339.22
2023-04-15T06:14:43.447Z,94340.13
2023-04-15T06:15:47.462Z,94332.22
2023-04-15T06:16:51.490Z,94344.03
2023-04-15T06:17:53.172Z,94332.00
2023-04-15T06:18:54.853Z,94332.63
2023-04-15T06:19:56.469Z,94328.84
2023-04-15T06:20:58.234Z,94335.84
2023-04-15T06:21:59.816Z,94328.41
2023-04-15T06:23:01.459Z,94331.25
2023-04-15T06:24:03.767Z,94325.34
2023-04-15T06:25:08.159Z,94327.09
2023-04-15T06:26:09.863Z,94325.78
2023-04-15T06:27:11.464Z,94331.66
2023-04-15T06:28:13.227Z,94334.47
2023-04-15T06:29:14.788Z,94332.69
2023-04-15T06:30:16.578Z,94333.94
2023-04-15T06:31:18.155Z,94330.53
2023-04-15T06:32:19.798Z,94341.81
2023-04-15T06:33:23.534Z,94330.56
2023-04-15T06:34:25.655Z,94339.78
2023-04-15T06:35:27.619Z,94340.81
2023-04-15T06:36:32.467Z,94341.13
2023-04-15T06:37:34.202Z,94330.38
2023-04-15T06:38:38.178Z,94336.56
2023-04-15T06:39:40.246Z,94331.47
2023-04-15T06:40:42.325Z,94334.16
2023-04-15T06:41:43.990Z,94334.16
2023-04-15T06:42:47.195Z,94336.22
2023-04-15T06:43:52.940Z,94338.06
2023-04-15T06:44:54.574Z,94333.88
2023-04-15T06:45:58.834Z,94341.53
2023-04-15T06:47:00.687Z,94340.50
2023-04-15T06:48:02.405Z,94332.94
2023-04-15T06:49:08.604Z,94337.38
2023-04-15T06:50:12.902Z,94337.38
2023-04-15T06:51:14.538Z,94333.16
2023-04-15T06:52:16.810Z,94333.84
2023-04-15T06:53:18.920Z,94337.31
2023-04-15T06:54:20.630Z,94340.81
2023-04-15T06:55:22.284Z,94331.69
2023-04-15T06:56:24.042Z,94333.16
2023-04-15T06:57:25.725Z,94331.47
2023-04-15T06:58:27.567Z,94336.66
2023-04-15T06:59:29.486Z,94326.75
2023-04-15T07:00:31.275Z,94331.69
2023-04-15T07:01:33.076Z,94327.28
2023-04-15T07:02:37.177Z,94329.66
2023-04-15T07:03:38.894Z,94338.63
2023-04-15T07:04:40.902Z,94330.78
2023-04-15T07:05:45.059Z,94334.28
2023-04-15T07:06:46.730Z,94330.59
2023-04-15T07:07:48.335Z,94329.16
2023-04-15T07:08:50.365Z,94326.44
2023-04-15T07:09:53.823Z,94332.78
2023-04-15T07:10:55.515Z,94327.00
2023-04-15T07:11:57.033Z,94323.94
2023-04-15T07:12:58.710Z,94330.91
2023-04-15T07:14:01.391Z,94322.25
2023-04-15T07:15:03.716Z,94324.44
2023-04-15T07:16:05.811Z,94318.69
2023-04-15T07:17:07.688Z,94322.16
2023-04-15T07:18:09.816Z,94320.31
2023-04-15T07:19:11.923Z,94323.78
2023-04-15T07:20:14.013Z,94325.16
2023-04-15T07:21:15.773Z,94317.00
2023-04-15T07:22:17.452Z,94319.66
2023-04-15T07:23:19.101Z,94318.78
2023-04-15T07:24:20.780Z,94325.41
2023-04-15T07:25:22.390Z,94330.31
2023-04-15T07:26:24.651Z,94324.38
2023-04-15T07:27:27.141Z,94319.69
2023-04-15T07:28:29.067Z,94319.31
2023-04-15T07:29:30.630Z,94321.59
2023-04-15T07:30:32.326Z,94320.44
2023-04-15T07:31:33.991Z,94319.50
2023-04-15T07:32:36.518Z,94322.06
2023-04-15T07:33:38.224Z,94324.22
2023-04-15T07:34:40.060Z,94315.91
2023-04-15T07:35:41.776Z,94323.41
2023-04-15T07:36:43.444Z,94321.00
2023-04-15T07:37:45.240Z,94325.56
2023-04-15T07:38:46.882Z,94324.25
2023-04-15T07:39:49.052Z,94322.75
2023-04-15T07:40:50.850Z,94325.44
2023-04-15T07:41:52.386Z,94326.19
2023-04-15T07:42:54.406Z,94329.16
2023-04-15T07:43:56.078Z,94325.28
2023-04-15T07:44:58.042Z,94326.97
2023-04-15T07:46:00.145Z,94334.72
2023-04-15T07:47:03.446Z,94330.59
2023-04-15T07:48:06.724Z,94330.56
2023-04-15T07:49:08.698Z,94329.31
2023-04-15T07:50:11.551Z,94335.66
2023-04-15T07:51:15.665Z,94339.59
2023-04-15T07:52:17.462Z,94334.31
2023-04-15T07:53:19.163Z,94339.22
2023-04-15T07:54:20.960Z,94339.03
2023-04-15T07:55:23.424Z,94339.56
2023-04-15T07:56:26.511Z,94347.19
2023-04-15T07:57:28.187Z,94337.22
2023-04-15T07:58:29.884Z,94343.69
2023-04-15T07:59:33.496Z,94345.28
2023-04-15T08:00:35.197Z,94342.66
2023-04-15T08:01:37.735Z,94349.72
2023-04-15T08:02:40.669Z,94346.25
2023-04-15T08:03:43.173Z,94345.41
2023-04-15T08:04:45.344Z,94346.97
2023-04-15T08:05:47.545Z,94348.22
2023-04-15T08:06:50.393Z,94347.16
2023-04-15T08:07:52.120Z,94342.38
2023-04-15T08:08:54.944Z,94346.91
2023-04-15T08:09:58.811Z,94346.25
2023-04-15T08:11:00.689Z,94347.28
2023-04-15T08:12:02.601Z,94349.09
2023-04-15T08:13:04.176Z,94352.66
2023-04-15T08:14:05.878Z,94355.91
2023-04-15T08:15:08.448Z,94359.59
2023-04-15T08:16:24.473Z,94354.28
2023-04-15T08:17:26.364Z,94356.59
2023-04-15T08:18:30.214Z,94346.59
2023-04-15T08:19:34.774Z,94359.28
2023-04-15T08:20:37.076Z,94359.88
2023-04-15T08:21:38.961Z,94357.81
2023-04-15T08:22:42.956Z,94364.09
2023-04-15T08:23:45.031Z,94363.94
2023-04-15T08:24:46.723Z,94359.56
2023-04-15T08:25:48.469Z,94364.91
2023-04-15T08:26:50.879Z,94362.69
2023-04-15T08:27:52.462Z,94369.13
2023-04-15T08:28:59.120Z,94369.81
2023-04-15T08:30:05.093Z,94363.56
2023-04-15T08:31:09.871Z,94366.41
2023-04-15T08:32:13.780Z,94370.41
2023-04-15T08:33:15.267Z,94376.53
2023-04-15T08:34:18.201Z,94370.91
2023-04-15T08:35:22.264Z,94372.00
2023-04-15T08:36:24.029Z,94375.91
2023-04-15T08:37:26.717Z,94371.28
2023-04-15T08:38:28.411Z,94372.50
2023-04-15T08:39:30.066Z,94374.94
2023-04-15T08:40:42.256Z,94378.25
2023-04-15T08:41:48.119Z,94371.00
2023-04-15T08:42:53.298Z,94377.91
2023-04-15T08:43:58.739Z,94379.75
2023-04-15T08:45:03.440Z,94378.97
2023-04-15T08:46:11.772Z,94374.97
2023-04-15T08:47:14.972Z,94377.81
2023-04-15T08:48:17.344Z,94378.09
2023-04-15T08:49:21.495Z,94377.53
2023-04-15T08:50:28.250Z,94383.13
2023-04-15T08:51:34.163Z,94380.25
2023-04-15T08:52:38.461Z,94376.34
2023-04-15T08:53:40.277Z,94382.41
2023-04-15T08:54:42.103Z,94378.97
2023-04-15T08:55:46.137Z,94376.97
2023-04-15T08:56:48.873Z,94381.91
2023-04-15T08:57:51.660Z,94385.91
2023-04-15T08:58:53.570Z,94388.03
2023-04-15T08:59:58.710Z,94391.47
2023-04-15T09:01:01.560Z,94392.25
2023-04-15T09:02:03.929Z,94383.50
2023-04-15T09:03:09.283Z,94391.47
2023-04-15T09:04:12.479Z,94391.75
2023-04-15T09:05:14.365Z,94393.88
2023-04-15T09:06:18.438Z,94383.13
2023-04-15T09:07:20.029Z,94394.88
2023-04-15T09:08:26.775Z,94383.97
2023-04-15T09:09:29.081Z,94382.97
2023-04-15T09:10:31.787Z,94392.03
2023-04-15T09:11:34.456Z,94393.00
2023-04-15T09:12:36.916Z,94392.72
2023-04-15T09:13:38.773Z,94390.88
2023-04-15T09:14:40.669Z,94394.44
2023-04-15T09:15:43.023Z,94388.38
2023-04-15T09:17:02.016Z,94395.47
2023-04-15T09:18:04.234Z,94393.72
2023-04-15T09:19:24.655Z,94404.22
2023-04-15T09:20:26.411Z,94392.72
2023-04-15T09:21:29.553Z,94398.41
2023-04-15T09:22:34.311Z,94395.28
2023-04-15T09:23:36.966Z,94400.34
2023-04-15T09:24:42.342Z,94400.88
2023-04-15T09:25:46.676Z,94405.94
2023-04-15T09:26:52.147Z,94407.81
2023-04-15T09:27:59.200Z,94402.84
2023-04-15T09:29:06.717Z,94410.22
2023-04-15T09:30:09.444Z,94405.00
2023-04-15T09:31:11.256Z,94411.66
2023-04-15T09:32:16.528Z,94405.09
2023-04-15T09:33:18.253Z,94411.22
2023-04-15T09:34:19.951Z,94407.69
2023-04-15T09:35:26.539Z,94417.56
2023-04-15T09:36:31.583Z,94401.47
2023-04-15T09:37:36.834Z,94408.91
2023-04-15T09:38:56.280Z,94410.47
2023-04-15T09:39:57.903Z,94406.50
2023-04-15T09:41:00.034Z,94406.53
2023-04-15T09:42:08.151Z,94416.03
2023-04-15T09:43:13.112Z,94411.28
2023-04-15T09:44:27.199Z,94407.56
2023-04-15T09:45:32.084Z,94416.84
2023-04-15T09:46:44.321Z,94411.06
2023-04-15T09:47:46.004Z,94414.44
2023-04-15T09:49:07.103Z,94414.25
2023-04-15T09:50:09.331Z,94413.78
2023-04-15T09:51:11.029Z,94417.25
2023-04-15T09:52:13.689Z,94424.63
2023-04-15T09:53:19.611Z,94425.16
2023-04-15T09:54:21.700Z,94427.06
2023-04-15T09:55:23.400Z,94428.94
2023-04-15T09:56:34.759Z,94434.22
2023-04-15T09:57:37.410Z,94433.69
2023-04-15T09:58:39.355Z,94433.41
2023-04-15T09:59:41.468Z,94436.31
2023-04-15T10:00:48.298Z,94435.25
2023-04-15T10:01:50.152Z,94435.81
2023-04-15T10:02:54.452Z,94435.81
2023-04-15T10:03:57.922Z,94440.81
2023-04-15T10:05:01.343Z,94446.91
2023-04-15T10:06:04.133Z,94445.53
2023-04-15T10:07:09.541Z,94443.66
2023-04-15T10:08:12.468Z,94447.88
2023-04-15T10:09:14.124Z,94448.69
2023-04-15T10:10:16.970Z,94447.91
2023-04-15T10:11:23.289Z,94446.28
2023-04-15T10:12:27.025Z,94445.25
2023-04-15T10:13:38.204Z,94445.28
2023-04-15T10:14:41.489Z,94442.59
2023-04-15T10:15:51.691Z,94451.31
2023-04-15T10:16:56.561Z,94454.25
2023-04-15T10:18:01.373Z,94452.16
2023-04-15T10:19:04.661Z,94452.69
2023-04-15T10:20:07.624Z,94449.31
2023-04-15T10:21:10.233Z,94451.38
2023-04-15T10:22:14.909Z,94448.19
2023-04-15T10:23:18.958Z,94447.19
2023-04-15T10:24:21.651Z,94446.94
2023-04-15T10:25:25.118Z,94446.41
2023-04-15T10:26:27.090Z,94450.59
2023-04-15T10:27:29.231Z,94446.16
2023-04-15T10:28:31.031Z,94442.47
2023-04-15T10:29:35.149Z,94447.50
2023-04-15T10:30:37.133Z,94445.41
2023-04-15T10:31:41.533Z,94448.84
2023-04-15T10:32:43.791Z,94447.53
2023-04-15T10:33:48.764Z,94454.44
2023-04-15T10:34:53.882Z,94449.19
2023-04-15T10:35:56.700Z,94449.97
2023-04-15T10:37:03.470Z,94461.59
2023-04-15T10:38:34.115Z,94454.41
2023-04-15T10:39:43.387Z,94458.06
2023-04-15T10:40:45.774Z,94463.44
2023-04-15T10:42:15.789Z,94457.91
2023-04-15T10:43:29.076Z,94463.72
2023-04-15T10:44:31.080Z,94462.94
2023-04-15T10:45:36.617Z,94460.25
2023-04-15T10:46:40.611Z,94463.69
2023-04-15T10:47:43.960Z,94469.25
2023-04-15T10:48:53.517Z,94466.03
2023-04-15T10:49:59.538Z,94466.00
2023-04-15T10:51:05.098Z,94468.66
2023-04-15T10:52:09.091Z,94474.47
2023-04-15T10:53:11.118Z,94466.31
2023-04-15T10:54:24.815Z,94473.44
2023-04-15T10:55:31.611Z,94467.88
2023-04-15T10:56:33.297Z,94473.38
2023-04-15T10:57:36.312Z,94480.69
2023-04-15T10:58:44.231Z,94480.75
2023-04-15T11:00:11.315Z,94481.25
2023-04-15T11:01:15.329Z,94485.25
2023-04-15T11:02:17.135Z,94478.66
2023-04-15T11:03:37.144Z,94485.81
2023-04-15T11:04:56.259Z,94486.88
2023-04-15T11:05:58.313Z,94488.75
2023-04-15T11:07:06.654Z,94490.78
2023-04-15T11:08:09.748Z,94499.47
2023-04-15T11:09:32.252Z,94495.44
2023-04-15T11:10:33.790Z,94498.53
2023-04-15T11:12:10.899Z,94491.16
2023-04-15T11:13:12.533Z,94497.50
2023-04-15T11:14:17.102Z,94498.81
2023-04-15T11:15:31.086Z,94504.09
2023-04-15T11:16:45.026Z,94500.69
2023-04-15T11:17:46.901Z,94504.91
2023-04-15T11:18:56.075Z,94502.53
2023-04-15T11:19:58.561Z,94507.84
2023-04-15T11:21:03.626Z,94505.47
2023-04-15T11:22:10.070Z,94513.16
2023-04-15T11:23:15.554Z,94512.31
2023-04-15T11:24:27.159Z,94505.69
2023-04-15T11:25:32.387Z,94512.34
2023-04-15T11:26:34.292Z,94519.22
2023-04-15T11:27:35.871Z,94520.81
2023-04-15T11:28:40.154Z,94512.69
2023-04-15T11:29:41.952Z,94523.00
2023-04-15T11:30:43.846Z,94520.31
2023-04-15T11:31:50.440Z,94516.66
2023-04-15T11:32:54.263Z,94510.13
2023-04-15T11:34:01.427Z,94511.94
2023-04-15T11:35:03.381Z,94517.25
2023-04-15T11:36:07.618Z,94519.66
2023-04-15T11:37:10.243Z,94517.31
2023-04-15T11:38:16.762Z,94517.84
2023-04-15T11:39:18.358Z,94522.63
2023-04-15T11:40:29.787Z,94516.00
2023-04-15T11:41:31.659Z,94523.13
2023-04-15T11:42:43.104Z,94522.34
2023-04-15T11:43:51.678Z,94529.50
2023-04-15T11:45:12.015Z,94537.41
2023-04-15T11:46:13.684Z,94533.69
2023-04-15T11:47:24.627Z,94530.75
2023-04-15T11:48:34.907Z,94536.84
2023-04-15T11:49:40.191Z,94536.84
2023-04-15T11:50:41.856Z,94536.84
2023-04-15T11:51:43.360Z,94538.66
2023-04-15T11:53:06.258Z,94549.50
2023-04-15T11:54:09.484Z,94550.28
2023-04-15T11:55:11.356Z,94545.97
2023-04-15T11:56:26.261Z,94547.59
2023-04-15T11:57:37.123Z,94544.03
2023-04-15T11:58:39.455Z,94549.91
2023-04-15T11:59:46.027Z,94551.25
2023-04-15T12:00:53.081Z,94554.72
2023-04-15T12:01:56.241Z,94560.53
2023-04-15T12:03:13.521Z,94558.34
2023-04-15T12:04:25.217Z,94564.22
2023-04-15T12:05:27.565Z,94563.94
2023-04-15T12:06:35.267Z,94565.81
2023-04-15T12:08:09.333Z,94569.72
2023-04-15T12:09:15.455Z,94563.72
2023-04-15T12:10:17.738Z,94571.13
2023-04-15T12:11:44.341Z,94572.72
2023-04-15T12:12:50.436Z,94574.06
2023-04-15T12:13:57.738Z,94582.28
2023-04-15T12:15:01.921Z,94583.38
2023-04-15T12:16:03.868Z,94574.88
2023-04-15T12:17:06.626Z,94584.19
2023-04-15T12:18:17.546Z,94588.63
2023-04-15T12:20:09.532Z,94581.28
2023-04-15T12:21:11.580Z,94592.13
2023-04-15T12:22:15.514Z,94595.00
2023-04-15T12:23:20.673Z,94585.22
2023-04-15T12:24:24.792Z,94587.56
2023-04-15T12:25:35.637Z,94597.56
2023-04-15T12:26:53.666Z,94595.41
2023-04-15T12:27:56.223Z,94590.91
2023-04-15T12:29:02.415Z,94588.56
2023-04-15T12:30:08.171Z,94585.94
2023-04-15T12:31:11.690Z,94607.81
2023-04-15T12:32:15.163Z,94596.97
2023-04-15T12:33:19.950Z,94601.38